Time;durP1;ratioP1;P1;durP2;ratioP2;P2;SDS_P1;SDS_P2;PMS_P1;PMS_P2;Temp;Humidity;BMP_temperature;BMP_pressure;BME280_temperature;BME280_humidity;BME280_pressure;Samples;Min_cycle;Max_cycle;Signal;HPM_P1;HPM_P2
2023/05/02 00:02:14;;;;;;;8.00;7.40;;;;;;;;;;6158453;23;20499;-78
2023/05/02 00:04:50;;;;;;;7.13;6.63;;;;;;;;;;6160174;23;20412;-78
2023/05/02 00:07:19;;;;;;;6.33;5.93;;;;;;;;;;6156011;23;20398;-79
2023/05/02 00:09:49;;;;;;;7.60;7.00;;;;;;;;;;6155159;23;20404;-77
2023/05/02 00:12:16;;;;;;;7.50;7.00;;;;;;;;;;6154872;23;20405;-78
2023/05/02 00:14:47;;;;;;;7.63;6.93;;;;;;;;;;6156783;23;20412;-78
2023/05/02 00:17:20;;;;;;;7.97;7.20;;;;;;;;;;6155752;23;20846;-79
2023/05/02 00:19:49;;;;;;;8.07;7.37;;;;;;;;;;6157239;23;20784;-78
2023/05/02 00:22:21;;;;;;;7.70;7.10;;;;;;;;;;6156904;23;20432;-78
2023/05/02 00:24:56;;;;;;;8.30;7.60;;;;;;;;;;6156327;23;20925;-78
2023/05/02 00:27:23;;;;;;;7.47;6.87;;;;;;;;;;6156121;23;20423;-78
2023/05/02 00:29:52;;;;;;;6.90;6.40;;;;;;;;;;6155896;23;20392;-77
2023/05/02 00:32:24;;;;;;;7.13;6.70;;;;;;;;;;6155271;23;20797;-77
2023/05/02 00:35:00;;;;;;;7.93;7.43;;;;;;;;;;6156654;23;20777;-77
2023/05/02 00:37:31;;;;;;;8.00;7.20;;;;;;;;;;6155827;23;20535;-79
2023/05/02 00:40:02;;;;;;;7.33;6.80;;;;;;;;;;6156336;23;20440;-77
2023/05/02 00:42:34;;;;;;;8.17;7.47;;;;;;;;;;6154597;23;20435;-77
2023/05/02 00:45:13;;;;;;;7.40;6.90;;;;;;;;;;6154921;23;20411;-79
2023/05/02 00:47:41;;;;;;;7.50;6.90;;;;;;;;;;6155248;23;20426;-78
2023/05/02 00:50:10;;;;;;;8.00;7.40;;;;;;;;;;6154421;23;20444;-78
2023/05/02 00:52:43;;;;;;;8.33;7.63;;;;;;;;;;6153783;23;20411;-77
2023/05/02 00:55:28;;;;;;;8.10;7.50;;;;;;;;;;6155402;23;20399;-78
2023/05/02 00:57:55;;;;;;;8.10;7.40;;;;;;;;;;6155432;23;20447;-77
2023/05/02 01:00:25;;;;;;;8.03;7.43;;;;;;;;;;6154457;23;20424;-77
2023/05/02 01:02:59;;;;;;;8.33;7.73;;;;;;;;;;6153699;23;20419;-79
2023/05/02 01:05:31;;;;;;;9.07;8.37;;;;;;;;;;6154536;23;20381;-77
2023/05/02 01:08:11;;;;;;;7.53;6.93;;;;;;;;;;6154838;23;20437;-77
2023/05/02 01:10:46;;;;;;;8.00;7.30;;;;;;;;;;6153717;23;20746;-79
2023/05/02 01:13:15;;;;;;;8.13;7.50;;;;;;;;;;6153784;23;20411;-77
2023/05/02 01:15:49;;;;;;;8.20;7.60;;;;;;;;;;6154691;23;20769;-79
2023/05/02 01:18:17;;;;;;;7.60;7.03;;;;;;;;;;6153974;23;20495;-78
2023/05/02 01:20:50;;;;;;;8.20;7.60;;;;;;;;;;6155160;23;21007;-78
2023/05/02 01:23:30;;;;;;;7.70;7.10;;;;;;;;;;6154369;23;20424;-78
2023/05/02 01:26:09;;;;;;;8.03;7.37;;;;;;;;;;6155162;23;20407;-79
2023/05/02 01:28:44;;;;;;;8.67;7.97;;;;;;;;;;6154563;23;20443;-77
2023/05/02 01:31:15;;;;;;;8.83;8.10;;;;;;;;;;6155788;23;20507;-78
2023/05/02 01:33:47;;;;;;;8.90;8.10;;;;;;;;;;6154862;23;20419;-78
2023/05/02 01:36:15;;;;;;;8.73;8.00;;;;;;;;;;6156112;23;20439;-78
2023/05/02 01:38:44;;;;;;;8.10;7.40;;;;;;;;;;6156077;23;20435;-77
2023/05/02 01:41:19;;;;;;;8.70;8.00;;;;;;;;;;6155316;23;20419;-77
2023/05/02 01:43:48;;;;;;;8.27;7.47;;;;;;;;;;6154806;23;20411;-78
2023/05/02 01:46:17;;;;;;;8.53;7.83;;;;;;;;;;6154120;23;20420;-79
2023/05/02 01:48:46;;;;;;;8.43;7.60;;;;;;;;;;6154115;23;20424;-80
2023/05/02 01:51:18;;;;;;;8.00;7.33;;;;;;;;;;6154322;23;20421;-78
2023/05/02 01:56:42;;;;;;;7.70;7.10;;;;;;;;;;6153332;23;20486;-79
2023/05/02 02:02:25;;;;;;;13.83;8.90;;;;;;;;;;6066604;23;20414;-77
2023/05/02 02:05:18;;;;;;;7.93;7.33;;;;;;;;;;6074243;23;20553;-77
2023/05/02 02:07:54;;;;;;;8.07;7.43;;;;;;;;;;6103888;23;20945;-77
2023/05/02 02:10:38;;;;;;;7.93;7.23;;;;;;;;;;6157296;23;20430;-78
2023/05/02 02:13:21;;;;;;;8.40;7.70;;;;;;;;;;6158108;23;20502;-78
2023/05/02 02:16:20;;;;;;;7.97;7.23;;;;;;;;;;6157788;23;20459;-77
2023/05/02 02:21:49;;;;;;;8.50;7.90;;;;;;;;;;6141101;23;20398;-79
2023/05/02 02:24:37;;;;;;;9.30;8.50;;;;;;;;;;6156611;23;20415;-77
2023/05/02 02:30:03;;;;;;;8.77;7.97;;;;;;;;;;6156668;23;20511;-77
2023/05/02 02:32:34;;;;;;;8.57;7.80;;;;;;;;;;6157430;23;20416;-78
2023/05/02 02:35:07;;;;;;;9.67;8.97;;;;;;;;;;6157861;23;20419;-78
2023/05/02 02:37:48;;;;;;;9.43;8.63;;;;;;;;;;6160414;23;20730;-77
2023/05/02 02:40:36;;;;;;;9.23;8.53;;;;;;;;;;6161909;23;20946;-77
2023/05/02 02:43:25;;;;;;;8.60;7.90;;;;;;;;;;6158895;23;20418;-78
2023/05/02 02:46:03;;;;;;;8.83;8.13;;;;;;;;;;6160145;23;20799;-78
2023/05/02 02:48:44;;;;;;;9.30;8.53;;;;;;;;;;6163666;23;20428;-78
2023/05/02 02:51:31;;;;;;;9.17;8.27;;;;;;;;;;6162350;23;20463;-77
2023/05/02 02:54:18;;;;;;;;;;;;;;;;;;;;;
2023/05/02 02:57:10;;;;;;;9.70;8.90;;;;;;;;;;6162330;23;20455;-77
2023/05/02 02:59:47;;;;;;;8.70;8.00;;;;;;;;;;6158223;23;20415;-79
2023/05/02 03:02:21;;;;;;;8.53;7.90;;;;;;;;;;6158747;23;20389;-79
2023/05/02 03:07:58;;;;;;;9.93;9.13;;;;;;;;;;6156733;23;20456;-78
2023/05/02 03:10:30;;;;;;;9.23;8.43;;;;;;;;;;6160643;23;20422;-78
2023/05/02 03:13:11;;;;;;;10.00;9.20;;;;;;;;;;6160673;23;20476;-77
2023/05/02 03:16:09;;;;;;;9.93;9.10;;;;;;;;;;6162113;23;20470;-77
2023/05/02 03:18:43;;;;;;;10.97;10.07;;;;;;;;;;6160280;23;20459;-76
2023/05/02 03:21:15;;;;;;;10.70;9.90;;;;;;;;;;6159670;23;20800;-77
2023/05/02 03:23:43;;;;;;;10.33;9.53;;;;;;;;;;6159724;23;20412;-77
2023/05/02 03:26:16;;;;;;;10.87;10.00;;;;;;;;;;6158157;23;20418;-77
2023/05/02 03:28:59;;;;;;;10.43;9.53;;;;;;;;;;6158659;23;20471;-77
2023/05/02 03:31:45;;;;;;;9.83;9.03;;;;;;;;;;6161138;23;20416;-76
2023/05/02 03:37:08;;;;;;;9.70;8.80;;;;;;;;;;6159371;23;20462;-79
2023/05/02 03:39:43;;;;;;;9.57;8.87;;;;;;;;;;6155808;23;20840;-77
2023/05/02 03:48:05;;;;;;;10.17;9.37;;;;;;;;;;6135596;23;20441;-77
2023/05/02 03:54:03;;;;;;;10.10;9.03;;;;;;;;;;6026985;23;20396;-76
2023/05/02 03:56:32;;;;;;;10.27;9.47;;;;;;;;;;5986932;23;21019;-74
2023/05/02 03:59:14;;;;;;;10.60;9.80;;;;;;;;;;6121889;23;20743;-77
2023/05/02 04:07:25;;;;;;;11.03;10.17;;;;;;;;;;6157264;23;20463;-78
2023/05/02 04:09:54;;;;;;;10.33;9.53;;;;;;;;;;6159013;23;20416;-76
2023/05/02 04:15:20;;;;;;;11.50;10.50;;;;;;;;;;6112302;23;20408;-77
2023/05/02 04:18:07;;;;;;;10.90;9.97;;;;;;;;;;6157827;23;20471;-77
2023/05/02 04:26:23;;;;;;;11.10;10.00;;;;;;;;;;6045263;23;20483;-75
2023/05/02 04:28:55;;;;;;;11.10;10.20;;;;;;;;;;6168478;23;20487;-77
2023/05/02 04:31:23;;;;;;;10.43;9.63;;;;;;;;;;6167855;23;20745;-78
2023/05/02 04:34:07;;;;;;;10.50;9.50;;;;;;;;;;6170566;23;20836;-76
2023/05/02 04:36:44;;;;;;;10.50;9.70;;;;;;;;;;6172785;23;20450;-75
2023/05/02 04:39:16;;;;;;;11.70;10.70;;;;;;;;;;6171498;23;20484;-75
2023/05/02 04:41:51;;;;;;;10.50;9.60;;;;;;;;;;6170418;23;20400;-76
2023/05/02 04:44:23;;;;;;;11.20;10.20;;;;;;;;;;6168294;23;20423;-77
2023/05/02 04:46:56;;;;;;;11.00;9.93;;;;;;;;;;6162015;23;20414;-77
2023/05/02 04:49:29;;;;;;;10.80;9.90;;;;;;;;;;6162099;23;20443;-76
2023/05/02 04:52:02;;;;;;;11.00;10.00;;;;;;;;;;6165108;23;20431;-77
2023/05/02 04:54:52;;;;;;;10.40;9.57;;;;;;;;;;6165270;23;20415;-77
2023/05/02 05:00:20;;;;;;;12.33;11.30;;;;;;;;;;6136951;23;20424;-78
2023/05/02 05:02:48;;;;;;;11.57;10.50;;;;;;;;;;6154891;23;20427;-76
2023/05/02 05:05:18;;;;;;;12.10;10.90;;;;;;;;;;6156178;23;20423;-77
2023/05/02 05:07:46;;;;;;;11.37;10.47;;;;;;;;;;6154898;23;20545;-77
2023/05/02 05:10:14;;;;;;;11.23;10.10;;;;;;;;;;6155712;23;20427;-78
2023/05/02 05:12:42;;;;;;;11.20;10.20;;;;;;;;;;6155845;23;20416;-76
2023/05/02 05:15:10;;;;;;;12.50;10.80;;;;;;;;;;6155522;23;20420;-77
2023/05/02 05:17:39;;;;;;;11.17;10.27;;;;;;;;;;6155824;23;20825;-77
2023/05/02 05:20:15;;;;;;;10.97;10.10;;;;;;;;;;6155609;23;20416;-77
2023/05/02 05:22:51;;;;;;;11.80;10.70;;;;;;;;;;6154618;23;20470;-78
2023/05/02 05:25:18;;;;;;;12.67;11.47;;;;;;;;;;6154799;23;20755;-77
2023/05/02 05:27:46;;;;;;;12.60;11.50;;;;;;;;;;6155073;23;20483;-76
2023/05/02 05:30:15;;;;;;;12.67;11.60;;;;;;;;;;6153407;23;20555;-76
2023/05/02 05:32:45;;;;;;;12.87;11.57;;;;;;;;;;6157571;23;20411;-76
2023/05/02 05:35:12;;;;;;;14.40;11.73;;;;;;;;;;6168492;23;20443;-77
2023/05/02 05:37:40;;;;;;;14.23;12.80;;;;;;;;;;6171129;23;21032;-76
2023/05/02 05:40:09;;;;;;;15.40;13.90;;;;;;;;;;6175134;23;20977;-76
2023/05/02 05:42:37;;;;;;;14.47;13.10;;;;;;;;;;6174475;23;20505;-76
2023/05/02 05:45:11;;;;;;;14.47;12.50;;;;;;;;;;6173643;23;20456;-77
2023/05/02 05:47:48;;;;;;;14.77;13.20;;;;;;;;;;6173105;23;20408;-79
2023/05/02 05:50:23;;;;;;;16.23;14.73;;;;;;;;;;6174882;23;20415;-78
2023/05/02 05:52:51;;;;;;;15.87;14.43;;;;;;;;;;6174358;23;20418;-77
2023/05/02 05:55:19;;;;;;;14.83;12.77;;;;;;;;;;6174860;23;20435;-75
2023/05/02 05:57:53;;;;;;;14.53;13.10;;;;;;;;;;6172776;23;20450;-77
2023/05/02 06:00:20;;;;;;;14.67;13.27;;;;;;;;;;6172706;23;20447;-77
2023/05/02 06:02:50;;;;;;;14.13;12.73;;;;;;;;;;6173387;23;20419;-76
2023/05/02 06:05:50;;;;;;;14.17;13.07;;;;;;;;;;6168665;23;20431;-77
2023/05/02 06:08:21;;;;;;;14.47;12.93;;;;;;;;;;6070607;23;20414;-76
2023/05/02 06:10:56;;;;;;;13.80;12.60;;;;;;;;;;6145457;23;20412;-78
2023/05/02 06:13:23;;;;;;;13.67;12.57;;;;;;;;;;6160432;23;21187;-76
2023/05/02 06:16:02;;;;;;;13.67;12.37;;;;;;;;;;6162154;23;20411;-77
2023/05/02 06:18:30;;;;;;;14.47;13.23;;;;;;;;;;6165216;23;20443;-78
2023/05/02 06:20:58;;;;;;;14.57;13.17;;;;;;;;;;6164803;23;20408;-76
2023/05/02 06:23:31;;;;;;;15.93;14.43;;;;;;;;;;6161804;23;20450;-76
2023/05/02 06:26:02;;;;;;;15.57;14.23;;;;;;;;;;6160761;23;21258;-77
2023/05/02 06:28:32;;;;;;;15.67;14.37;;;;;;;;;;6160779;23;20980;-76
2023/05/02 06:31:04;;;;;;;17.70;16.10;;;;;;;;;;6160504;23;20440;-78
2023/05/02 06:33:34;;;;;;;16.13;14.73;;;;;;;;;;6156938;23;20491;-76
2023/05/02 06:36:03;;;;;;;15.70;14.40;;;;;;;;;;6155895;23;20474;-77
2023/05/02 06:38:32;;;;;;;17.70;16.13;;;;;;;;;;6156089;23;20475;-77
2023/05/02 06:41:02;;;;;;;17.60;15.93;;;;;;;;;;6157502;23;20495;-77
2023/05/02 06:46:11;;;;;;;17.47;15.90;;;;;;;;;;6151145;23;20431;-76
2023/05/02 06:48:42;;;;;;;18.53;16.73;;;;;;;;;;6157408;23;20512;-76
2023/05/02 06:51:09;;;;;;;17.80;15.90;;;;;;;;;;6156630;23;20432;-77
2023/05/02 06:53:37;;;;;;;18.70;17.07;;;;;;;;;;6157002;23;20419;-76
2023/05/02 06:56:10;;;;;;;18.20;16.60;;;;;;;;;;6157532;23;20395;-77
2023/05/02 06:58:38;;;;;;;19.30;16.90;;;;;;;;;;6157131;23;20451;-76
2023/05/02 07:01:06;;;;;;;19.80;18.10;;;;;;;;;;6157689;23;20412;-77
2023/05/02 07:03:34;;;;;;;19.67;17.97;;;;;;;;;;6156563;23;20499;-77
2023/05/02 07:06:01;;;;;;;19.20;17.50;;;;;;;;;;6155184;23;20413;-77
2023/05/02 07:08:29;;;;;;;20.33;18.43;;;;;;;;;;6154995;23;21024;-78
2023/05/02 07:10:56;;;;;;;20.63;18.50;;;;;;;;;;6155551;23;20396;-76
2023/05/02 07:13:25;;;;;;;20.77;18.83;;;;;;;;;;6155855;23;20416;-77
2023/05/02 07:15:53;;;;;;;21.33;19.20;;;;;;;;;;6155191;23;20415;-79
2023/05/02 07:18:21;;;;;;;21.60;19.60;;;;;;;;;;6154687;23;20443;-77
2023/05/02 07:20:50;;;;;;;23.80;21.40;;;;;;;;;;6155115;23;20929;-76
2023/05/02 07:23:19;;;;;;;22.97;20.87;;;;;;;;;;6155847;23;20443;-76
2023/05/02 07:25:57;;;;;;;21.43;19.43;;;;;;;;;;6156035;23;20423;-77
2023/05/02 07:28:26;;;;;;;22.57;20.57;;;;;;;;;;6155075;23;21027;-77
2023/05/02 07:30:57;;;;;;;24.03;21.63;;;;;;;;;;6155189;23;20430;-77
2023/05/02 07:33:25;;;;;;;24.50;22.20;;;;;;;;;;6154339;23;20449;-77
2023/05/02 07:35:56;;;;;;;23.50;21.17;;;;;;;;;;6156259;23;20423;-78
2023/05/02 07:38:25;;;;;;;25.60;23.20;;;;;;;;;;6155237;23;20454;-76
2023/05/02 07:40:54;;;;;;;24.07;21.80;;;;;;;;;;6155408;23;20470;-76
2023/05/02 07:43:23;;;;;;;25.47;22.67;;;;;;;;;;6154998;23;20416;-77
2023/05/02 07:45:53;;;;;;;24.53;22.33;;;;;;;;;;6154882;23;20423;-77
2023/05/02 07:48:24;;;;;;;24.40;22.00;;;;;;;;;;6157735;23;20428;-76
2023/05/02 07:50:53;;;;;;;24.00;21.73;;;;;;;;;;6159710;23;20918;-78
2023/05/02 07:53:22;;;;;;;25.50;22.90;;;;;;;;;;6159767;23;20402;-77
2023/05/02 07:55:50;;;;;;;26.83;24.00;;;;;;;;;;6158510;23;20415;-76
2023/05/02 07:58:18;;;;;;;26.60;23.87;;;;;;;;;;6157757;23;20447;-77
2023/05/02 08:00:49;;;;;;;26.43;23.80;;;;;;;;;;6160699;23;20412;-76
2023/05/02 08:03:19;;;;;;;24.70;22.47;;;;;;;;;;6155993;23;20455;-76
2023/05/02 08:05:48;;;;;;;25.47;23.13;;;;;;;;;;6155092;23;20986;-79
2023/05/02 08:08:16;;;;;;;26.50;23.90;;;;;;;;;;6155106;23;20628;-77
2023/05/02 08:10:44;;;;;;;26.80;24.30;;;;;;;;;;6155366;23;20436;-78
2023/05/02 08:13:16;;;;;;;28.20;25.40;;;;;;;;;;6155611;23;20416;-76
2023/05/02 08:15:44;;;;;;;26.30;23.70;;;;;;;;;;6154701;23;20412;-76
2023/05/02 08:18:12;;;;;;;28.47;25.73;;;;;;;;;;6154925;23;20447;-77
2023/05/02 08:20:41;;;;;;;27.50;24.77;;;;;;;;;;6155508;23;20435;-77
2023/05/02 08:23:11;;;;;;;28.63;25.67;;;;;;;;;;6155301;23;20480;-77
2023/05/02 08:25:41;;;;;;;28.27;25.40;;;;;;;;;;6156262;23;20728;-77
2023/05/02 08:28:12;;;;;;;27.53;24.90;;;;;;;;;;6155020;23;20499;-77
2023/05/02 08:30:44;;;;;;;30.30;27.40;;;;;;;;;;6155549;23;20416;-77
2023/05/02 08:33:12;;;;;;;30.20;27.27;;;;;;;;;;6155137;23;20396;-77
2023/05/02 08:35:44;;;;;;;28.00;25.23;;;;;;;;;;6155978;23;20428;-77
2023/05/02 08:38:15;;;;;;;28.90;26.10;;;;;;;;;;6157485;23;20456;-77
2023/05/02 08:40:46;;;;;;;30.87;27.60;;;;;;;;;;6159295;23;20412;-79
2023/05/02 08:43:15;;;;;;;28.90;26.07;;;;;;;;;;6159243;23;20420;-76
2023/05/02 08:45:50;;;;;;;28.23;25.43;;;;;;;;;;6160634;23;20498;-77
2023/05/02 08:48:19;;;;;;;28.17;25.47;;;;;;;;;;6159080;23;20551;-77
2023/05/02 08:51:01;;;;;;;28.20;25.30;;;;;;;;;;6158551;23;20412;-77
2023/05/02 08:53:43;;;;;;;27.73;24.93;;;;;;;;;;6157647;23;20758;-78
2023/05/02 08:56:17;;;;;;;26.97;24.37;;;;;;;;;;6157101;23;20393;-77
2023/05/02 08:58:51;;;;;;;27.57;24.97;;;;;;;;;;6156976;23;20455;-78
2023/05/02 09:01:21;;;;;;;27.63;25.07;;;;;;;;;;6156303;23;20442;-78
2023/05/02 09:03:53;;;;;;;27.20;24.50;;;;;;;;;;6158019;23;20412;-77
2023/05/02 09:06:24;;;;;;;29.30;26.20;;;;;;;;;;6164020;23;20481;-78
2023/05/02 09:08:53;;;;;;;27.77;24.97;;;;;;;;;;6165919;23;20420;-76
2023/05/02 09:11:21;;;;;;;27.50;24.90;;;;;;;;;;6166043;23;20416;-77
2023/05/02 09:13:50;;;;;;;25.30;22.97;;;;;;;;;;6167755;23;20408;-76
2023/05/02 09:16:21;;;;;;;25.57;23.07;;;;;;;;;;6163856;23;20470;-76
2023/05/02 09:18:53;;;;;;;24.47;22.07;;;;;;;;;;6163379;23;20759;-78
2023/05/02 09:21:22;;;;;;;26.07;23.00;;;;;;;;;;6166536;23;20424;-77
2023/05/02 09:23:56;;;;;;;24.80;22.60;;;;;;;;;;6169954;23;20415;-78
2023/05/02 09:26:30;;;;;;;24.10;21.73;;;;;;;;;;6169258;23;20751;-78
2023/05/02 09:28:58;;;;;;;27.20;24.70;;;;;;;;;;6168189;23;20440;-78
2023/05/02 09:31:29;;;;;;;25.33;23.00;;;;;;;;;;6168047;23;20420;-78
2023/05/02 09:34:00;;;;;;;25.43;22.73;;;;;;;;;;6164952;23;20435;-77
2023/05/02 09:36:39;;;;;;;24.30;21.90;;;;;;;;;;6168356;23;20396;-77
2023/05/02 09:39:14;;;;;;;26.53;24.03;;;;;;;;;;6169926;23;20442;-78
2023/05/02 09:41:42;;;;;;;26.00;23.50;;;;;;;;;;6160505;23;20415;-80
2023/05/02 09:44:11;;;;;;;25.83;23.17;;;;;;;;;;6159212;23;20466;-80
2023/05/02 09:46:48;;;;;;;28.57;25.60;;;;;;;;;;6159268;23;20438;-78
2023/05/02 09:49:19;;;;;;;26.83;24.20;;;;;;;;;;6158592;23;20420;-78
2023/05/02 09:51:53;;;;;;;25.80;23.20;;;;;;;;;;6158660;23;20768;-79
2023/05/02 10:07:41;;;;;;;27.17;24.47;;;;;;;;;;5054068;27;2356808;-78
2023/05/02 10:10:16;;;;;;;25.93;23.23;;;;;;;;;;5134852;28;20227;-77
2023/05/02 10:12:45;;;;;;;27.07;24.53;;;;;;;;;;5134850;28;20430;-81
2023/05/02 10:15:19;;;;;;;25.10;22.80;;;;;;;;;;5136900;28;20473;-79
2023/05/02 10:17:49;;;;;;;23.90;21.80;;;;;;;;;;5138314;28;20470;-80
2023/05/02 10:20:33;;;;;;;25.80;23.50;;;;;;;;;;5139613;28;20446;-80
2023/05/02 10:23:02;;;;;;;24.17;22.07;;;;;;;;;;5147341;28;20542;-79
2023/05/02 10:25:37;;;;;;;23.97;21.97;;;;;;;;;;5146377;28;20522;-79
2023/05/02 10:28:11;;;;;;;24.23;21.73;;;;;;;;;;5146454;27;20520;-78
2023/05/02 10:30:39;;;;;;;22.23;20.23;;;;;;;;;;5146776;28;20442;-79
2023/05/02 10:33:15;;;;;;;23.23;21.23;;;;;;;;;;5146513;28;20450;-79
2023/05/02 10:35:52;;;;;;;24.27;22.07;;;;;;;;;;5146980;28;20458;-81
2023/05/02 10:38:37;;;;;;;22.60;20.53;;;;;;;;;;5143945;27;20526;-77
2023/05/02 10:41:26;;;;;;;23.03;21.03;;;;;;;;;;5137323;28;20446;-78
2023/05/02 10:44:06;;;;;;;22.90;20.97;;;;;;;;;;5134409;28;20511;-79
2023/05/02 10:46:41;;;;;;;20.97;19.03;;;;;;;;;;5136830;28;20503;-79
2023/05/02 10:49:29;;;;;;;21.30;19.40;;;;;;;;;;5136920;27;20481;-78
2023/05/02 10:52:00;;;;;;;19.60;18.00;;;;;;;;;;5134649;28;20521;-78
2023/05/02 10:54:45;;;;;;;21.17;19.47;;;;;;;;;;5132429;28;20446;-77
2023/05/02 10:57:17;;;;;;;23.93;21.63;;;;;;;;;;5128031;27;20482;-78
2023/05/02 10:59:55;;;;;;;20.07;18.00;;;;;;;;;;5135746;28;20446;-79
2023/05/02 11:02:47;;;;;;;18.30;16.80;;;;;;;;;;5138451;28;20454;-80
2023/05/02 11:05:18;;;;;;;17.93;16.33;;;;;;;;;;5138409;28;20435;-79
2023/05/02 11:08:09;;;;;;;18.47;16.70;;;;;;;;;;5129610;28;20478;-78
2023/05/02 11:10:42;;;;;;;17.93;16.50;;;;;;;;;;5120794;28;20471;-79
2023/05/02 11:13:14;;;;;;;20.30;18.10;;;;;;;;;;5118545;28;20458;-79
2023/05/02 11:16:01;;;;;;;19.00;17.40;;;;;;;;;;5118582;28;20474;-78
2023/05/02 11:18:58;;;;;;;19.27;17.43;;;;;;;;;;5121159;28;20470;-78
2023/05/02 11:21:34;;;;;;;19.23;17.53;;;;;;;;;;5123226;28;20423;-80
2023/05/02 11:24:21;;;;;;;20.30;18.47;;;;;;;;;;5121972;28;20442;-77
2023/05/02 11:26:49;;;;;;;17.57;16.17;;;;;;;;;;5122912;28;20504;-77
2023/05/02 11:29:33;;;;;;;19.43;17.77;;;;;;;;;;5122111;27;20828;-80
2023/05/02 11:32:10;;;;;;;21.93;19.83;;;;;;;;;;5117793;28;20443;-77
2023/05/02 11:34:56;;;;;;;19.80;18.10;;;;;;;;;;5125102;28;20540;-78
2023/05/02 11:37:27;;;;;;;19.50;17.73;;;;;;;;;;5122236;28;20527;-79
2023/05/02 11:40:12;;;;;;;19.40;17.77;;;;;;;;;;5121948;28;20443;-80
2023/05/02 11:42:46;;;;;;;18.77;17.00;;;;;;;;;;5121492;28;21317;-79
2023/05/02 11:45:22;;;;;;;18.70;17.00;;;;;;;;;;5121960;28;20443;-78
2023/05/02 11:48:05;;;;;;;21.03;19.07;;;;;;;;;;5125860;28;20549;-78
2023/05/02 11:50:37;;;;;;;21.47;19.43;;;;;;;;;;5125262;28;20443;-77
2023/05/02 11:53:21;;;;;;;21.67;19.40;;;;;;;;;;5125448;28;20447;-78
2023/05/02 11:55:56;;;;;;;21.13;19.23;;;;;;;;;;5124861;28;20474;-77
2023/05/02 11:58:49;;;;;;;;;;;;;;;;;;;;;
2023/05/02 12:01:18;;;;;;;21.33;19.50;;;;;;;;;;5123228;28;20415;-78
2023/05/02 12:04:02;;;;;;;22.83;20.77;;;;;;;;;;5122808;28;20457;-79
2023/05/02 12:06:37;;;;;;;23.97;21.67;;;;;;;;;;5126121;28;20447;-79
2023/05/02 12:12:07;;;;;;;20.83;18.93;;;;;;;;;;5119871;28;20439;-77
2023/05/02 12:14:40;;;;;;;19.30;17.60;;;;;;;;;;5123899;28;20508;-79
2023/05/02 12:17:09;;;;;;;20.60;18.70;;;;;;;;;;5122083;28;20466;-78
2023/05/02 12:19:44;;;;;;;22.50;20.53;;;;;;;;;;5120417;28;20459;-79
2023/05/02 12:22:13;;;;;;;21.13;19.03;;;;;;;;;;5121981;28;20511;-78
2023/05/02 12:24:43;;;;;;;21.07;19.17;;;;;;;;;;5111636;28;20448;-78
2023/05/02 12:27:14;;;;;;;19.50;17.90;;;;;;;;;;5101956;28;20520;-77
2023/05/02 12:29:42;;;;;;;24.30;22.03;;;;;;;;;;5101255;28;20840;-77
2023/05/02 12:32:10;;;;;;;24.83;22.47;;;;;;;;;;5100682;28;20463;-78
2023/05/02 12:34:38;;;;;;;25.10;22.60;;;;;;;;;;5099880;28;20443;-77
2023/05/02 12:37:08;;;;;;;25.60;22.97;;;;;;;;;;5099533;28;20894;-80
2023/05/02 12:39:41;;;;;;;25.30;22.90;;;;;;;;;;5098937;28;20507;-78
2023/05/02 12:42:14;;;;;;;22.67;20.67;;;;;;;;;;5099617;28;20498;-79
2023/05/02 12:44:45;;;;;;;24.80;22.40;;;;;;;;;;5100167;28;20443;-77
2023/05/02 12:47:23;;;;;;;24.77;22.40;;;;;;;;;;5101453;28;20444;-79
2023/05/02 12:49:51;;;;;;;25.37;23.00;;;;;;;;;;5100182;28;20444;-77
2023/05/02 12:52:46;;;;;;;22.60;20.50;;;;;;;;;;5098841;28;20455;-79
2023/05/02 12:55:20;;;;;;;22.43;19.97;;;;;;;;;;5098416;28;21036;-78
2023/05/02 12:57:51;;;;;;;22.70;20.53;;;;;;;;;;5097866;28;20478;-78
2023/05/02 13:00:20;;;;;;;24.30;22.00;;;;;;;;;;5096231;28;20717;-82
2023/05/02 13:02:55;;;;;;;22.00;19.80;;;;;;;;;;5096611;28;20456;-77
2023/05/02 13:05:26;;;;;;;21.27;18.27;;;;;;;;;;5096880;28;20467;-78
2023/05/02 13:08:02;;;;;;;21.63;19.43;;;;;;;;;;5096281;28;20478;-78
2023/05/02 13:10:34;;;;;;;21.90;19.83;;;;;;;;;;5097244;28;20442;-78
2023/05/02 13:13:04;;;;;;;20.90;18.90;;;;;;;;;;5097815;28;20915;-78
2023/05/02 13:15:35;;;;;;;22.20;20.20;;;;;;;;;;5095405;28;20539;-78
2023/05/02 13:18:07;;;;;;;21.87;19.90;;;;;;;;;;5096242;28;20487;-78
2023/05/02 13:20:40;;;;;;;22.10;19.70;;;;;;;;;;5096406;28;20816;-77
2023/05/02 13:23:17;;;;;;;20.70;18.67;;;;;;;;;;5097393;28;20532;-77
2023/05/02 13:25:50;;;;;;;20.00;18.20;;;;;;;;;;5098168;28;20510;-79
2023/05/02 13:28:22;;;;;;;17.80;16.10;;;;;;;;;;5102787;28;20549;-78
2023/05/02 13:30:50;;;;;;;16.13;14.63;;;;;;;;;;5118435;28;20457;-78
2023/05/02 13:33:17;;;;;;;21.17;19.13;;;;;;;;;;5120937;28;20446;-75
2023/05/02 13:35:48;;;;;;;19.47;17.47;;;;;;;;;;5116802;28;20447;-78
2023/05/02 13:38:19;;;;;;;17.50;15.90;;;;;;;;;;5115156;28;20474;-77
2023/05/02 13:40:47;;;;;;;16.83;15.30;;;;;;;;;;5118066;28;20458;-76
2023/05/02 13:43:17;;;;;;;18.70;16.90;;;;;;;;;;5119961;28;20439;-76
2023/05/02 13:45:51;;;;;;;17.23;15.53;;;;;;;;;;5121044;28;20447;-76
2023/05/02 13:48:19;;;;;;;16.27;14.70;;;;;;;;;;5117978;28;20467;-78
2023/05/02 13:50:48;;;;;;;15.17;13.77;;;;;;;;;;5115080;28;20446;-77
2023/05/02 13:53:26;;;;;;;15.97;14.57;;;;;;;;;;5114661;28;20436;-78
2023/05/02 13:56:04;;;;;;;15.63;14.00;;;;;;;;;;5113710;28;20427;-77
2023/05/02 13:58:48;;;;;;;16.90;15.27;;;;;;;;;;5112492;28;20490;-79
2023/05/02 14:01:28;;;;;;;16.87;14.20;;;;;;;;;;5113443;28;20423;-78
2023/05/02 14:04:05;;;;;;;16.00;14.40;;;;;;;;;;5113302;28;20510;-77
2023/05/02 14:06:36;;;;;;;15.93;14.53;;;;;;;;;;5114287;28;20958;-77
2023/05/02 14:09:28;;;;;;;17.10;15.50;;;;;;;;;;5113474;28;20478;-80
2023/05/02 14:12:03;;;;;;;16.90;15.43;;;;;;;;;;5112665;28;20427;-82
2023/05/02 14:14:45;;;;;;;17.03;15.33;;;;;;;;;;5112702;28;20447;-77
2023/05/02 14:17:18;;;;;;;16.87;15.30;;;;;;;;;;5111534;28;20471;-80
2023/05/02 14:20:03;;;;;;;14.73;13.43;;;;;;;;;;5114867;28;20430;-81
2023/05/02 14:22:34;;;;;;;11.63;10.53;;;;;;;;;;5115079;28;20815;-78
2023/05/02 14:25:06;;;;;;;10.17;9.17;;;;;;;;;;5111635;28;20450;-77
2023/05/02 14:27:42;;;;;;;11.80;10.70;;;;;;;;;;5110582;28;20463;-79
2023/05/02 14:30:19;;;;;;;13.03;11.83;;;;;;;;;;5112672;28;20446;-81
2023/05/02 14:32:54;;;;;;;12.53;11.33;;;;;;;;;;5112035;28;20411;-77
2023/05/02 14:35:23;;;;;;;11.50;10.47;;;;;;;;;;5111177;28;20492;-80
2023/05/02 14:38:14;;;;;;;11.47;9.97;;;;;;;;;;5111126;28;20479;-79
2023/05/02 14:40:49;;;;;;;10.97;9.87;;;;;;;;;;5110974;28;20447;-76
2023/05/02 14:43:22;;;;;;;11.10;10.10;;;;;;;;;;5113781;28;20461;-78
2023/05/02 14:45:55;;;;;;;10.43;9.50;;;;;;;;;;5115724;28;20482;-80
2023/05/02 14:48:28;;;;;;;9.67;8.67;;;;;;;;;;5116027;28;20466;-78
2023/05/02 14:51:04;;;;;;;10.90;9.97;;;;;;;;;;5115435;28;20446;-79
2023/05/02 14:53:38;;;;;;;12.27;11.17;;;;;;;;;;5115499;28;20431;-78
2023/05/02 14:56:20;;;;;;;10.60;9.50;;;;;;;;;;5116199;28;20430;-78
2023/05/02 14:58:57;;;;;;;11.10;10.00;;;;;;;;;;5116863;28;20481;-78
2023/05/02 15:01:38;;;;;;;9.80;8.90;;;;;;;;;;5120600;28;20458;-80
2023/05/02 15:04:17;;;;;;;9.20;8.30;;;;;;;;;;5119487;28;20434;-78
2023/05/02 15:06:53;;;;;;;10.27;9.33;;;;;;;;;;5119231;28;20446;-77
2023/05/02 15:09:31;;;;;;;14.10;12.07;;;;;;;;;;5119575;28;20511;-79
2023/05/02 15:12:09;;;;;;;11.60;10.50;;;;;;;;;;5098758;28;20451;-79
2023/05/02 15:14:53;;;;;;;13.03;11.20;;;;;;;;;;5098425;28;20464;-77
2023/05/02 15:17:30;;;;;;;10.67;9.70;;;;;;;;;;5099217;28;21049;-77
2023/05/02 15:22:49;;;;;;;11.40;10.40;;;;;;;;;;5097794;28;20428;-78
2023/05/02 15:25:22;;;;;;;10.67;9.57;;;;;;;;;;5097457;28;20558;-78
2023/05/02 15:27:55;;;;;;;9.07;8.13;;;;;;;;;;5098186;28;20482;-78
2023/05/02 15:30:29;;;;;;;10.57;9.47;;;;;;;;;;5098537;28;20460;-77
2023/05/02 15:33:02;;;;;;;9.70;8.83;;;;;;;;;;5100379;28;20531;-78
2023/05/02 15:35:34;;;;;;;9.10;8.30;;;;;;;;;;5102454;28;20432;-79
2023/05/02 15:38:16;;;;;;;8.47;7.67;;;;;;;;;;5100769;28;20570;-77
2023/05/02 15:40:47;;;;;;;8.93;8.03;;;;;;;;;;5100157;28;20481;-79
2023/05/02 15:43:24;;;;;;;6.67;6.07;;;;;;;;;;5102657;28;20468;-77
2023/05/02 15:45:55;;;;;;;6.83;6.13;;;;;;;;;;5107503;28;20451;-80
2023/05/02 15:48:27;;;;;;;6.90;5.10;;;;;;;;;;5110954;28;20468;-78
2023/05/02 15:51:05;;;;;;;6.00;5.50;;;;;;;;;;5109729;28;20478;-78
2023/05/02 15:53:41;;;;;;;6.40;5.90;;;;;;;;;;5109295;28;20450;-79
2023/05/02 15:56:15;;;;;;;8.83;6.07;;;;;;;;;;5108611;28;20473;-80
2023/05/02 15:58:52;;;;;;;6.07;5.23;;;;;;;;;;5109053;28;20566;-77
2023/05/02 16:01:31;;;;;;;5.40;4.90;;;;;;;;;;5099694;28;20450;-78
2023/05/02 16:04:05;;;;;;;5.73;5.13;;;;;;;;;;5098777;28;20447;-78
2023/05/02 16:06:42;;;;;;;6.43;5.50;;;;;;;;;;5096846;28;20458;-78
2023/05/02 16:09:11;;;;;;;6.13;5.53;;;;;;;;;;5096378;28;20466;-79
2023/05/02 16:11:45;;;;;;;5.67;5.20;;;;;;;;;;5096830;28;20444;-77